Time;durP1;ratioP1;P1;durP2;ratioP2;P2;SDS_P1;SDS_P2;PMS_P1;PMS_P2;Temp;Humidity;BMP_temperature;BMP_pressure;BME280_temperature;BME280_humidity;BME280_pressure;Samples;Min_cycle;Max_cycle;Signal;HPM_P1;HPM_P2
2022/07/07 00:01:39;;;;;;;1.30;0.50;;;;;;;13.47;100.00;101112.91;5037900;28;20261;-74
2022/07/07 00:04:08;;;;;;;0.90;0.47;;;;;;;13.34;100.00;101111.59;5034963;28;20203;-75
2022/07/07 00:06:34;;;;;;;0.40;0.40;;;;;;;13.40;100.00;101114.88;5044627;28;20294;-75
2022/07/07 00:09:02;;;;;;;3.40;0.70;;;;;;;13.36;100.00;101113.25;5041762;28;20206;-74
2022/07/07 00:11:30;;;;;;;0.63;0.53;;;;;;;13.34;100.00;101108.97;5036736;28;20581;-74
2022/07/07 00:13:57;;;;;;;0.60;0.60;;;;;;;13.41;100.00;101108.72;5041093;28;20219;-74
2022/07/07 00:16:23;;;;;;;0.77;0.60;;;;;;;13.37;100.00;101111.50;5040906;28;20692;-74
2022/07/07 00:18:50;;;;;;;1.13;0.60;;;;;;;13.34;100.00;101108.97;5044537;28;20201;-74
2022/07/07 00:21:17;;;;;;;0.57;0.50;;;;;;;13.39;100.00;101105.31;5038956;28;20236;-74
2022/07/07 00:23:45;;;;;;;0.90;0.60;;;;;;;13.30;100.00;101102.06;5045953;28;20191;-74
2022/07/07 00:26:11;;;;;;;0.57;0.50;;;;;;;13.23;100.00;101104.03;5037528;28;20197;-75
2022/07/07 00:28:39;;;;;;;0.50;0.50;;;;;;;13.19;100.00;101098.03;5037300;28;20224;-74
2022/07/07 00:31:06;;;;;;;2.40;0.43;;;;;;;13.23;100.00;101093.56;5035633;28;20215;-74
2022/07/07 00:33:32;;;;;;;0.50;0.50;;;;;;;13.29;100.00;101098.59;5039845;28;20208;-74
2022/07/07 00:36:00;;;;;;;0.77;0.60;;;;;;;13.38;100.00;101095.72;5037011;28;20271;-74
2022/07/07 00:38:26;;;;;;;0.90;0.67;;;;;;;13.32;100.00;101089.84;5040710;28;20227;-75
2022/07/07 00:40:54;;;;;;;2.27;0.60;;;;;;;13.43;100.00;101085.97;5038635;28;20404;-74
2022/07/07 00:43:21;;;;;;;0.60;0.50;;;;;;;13.34;100.00;101090.63;5037393;28;20217;-74
2022/07/07 00:45:50;;;;;;;0.47;0.47;;;;;;;13.38;100.00;101085.25;5041588;28;20191;-74
2022/07/07 00:48:18;;;;;;;1.10;0.60;;;;;;;13.40;100.00;101074.72;5039446;28;20211;-74
2022/07/07 00:50:46;;;;;;;0.50;0.50;;;;;;;13.29;100.00;101088.13;5042694;28;20218;-74
2022/07/07 00:53:13;;;;;;;2.43;0.50;;;;;;;13.41;100.00;101076.44;5040288;28;20211;-74
2022/07/07 00:55:40;;;;;;;0.50;0.50;;;;;;;13.48;100.00;101064.88;5041515;28;20277;-75
2022/07/07 00:58:07;;;;;;;0.50;0.50;;;;;;;13.48;100.00;101066.66;5037216;28;20203;-74
2022/07/07 01:00:34;;;;;;;0.63;0.63;;;;;;;13.49;100.00;101060.50;5044094;28;20228;-74
2022/07/07 01:03:02;;;;;;;1.30;0.60;;;;;;;13.51;100.00;101059.56;5042246;28;20219;-74
2022/07/07 01:05:31;;;;;;;0.83;0.63;;;;;;;13.45;100.00;101064.97;5040760;28;20672;-74
2022/07/07 01:07:58;;;;;;;0.57;0.57;;;;;;;13.33;100.00;101068.84;5040013;28;20692;-74
2022/07/07 01:10:24;;;;;;;2.77;0.70;;;;;;;13.32;100.00;101056.63;5035404;28;20235;-74
2022/07/07 01:12:51;;;;;;;0.60;0.57;;;;;;;13.31;100.00;101057.53;5040473;28;20226;-74
2022/07/07 01:15:17;;;;;;;1.70;0.60;;;;;;;13.28;100.00;101052.38;5042997;28;20265;-74
2022/07/07 01:17:44;;;;;;;0.50;0.50;;;;;;;13.42;100.00;101046.72;5043734;28;20223;-74
2022/07/07 01:20:13;;;;;;;0.80;0.50;;;;;;;13.48;100.00;101054.41;5037552;28;20571;-74
2022/07/07 01:22:40;;;;;;;0.57;0.57;;;;;;;13.42;100.00;101052.84;5043227;28;20203;-74
2022/07/07 01:25:08;;;;;;;0.40;0.40;;;;;;;13.46;100.00;101050.13;5042666;28;20191;-74
2022/07/07 01:27:35;;;;;;;1.60;0.67;;;;;;;13.33;99.37;101049.63;5042245;28;20202;-74
2022/07/07 01:30:01;;;;;;;0.60;0.60;;;;;;;13.32;98.36;101050.56;5041321;28;20211;-75
2022/07/07 01:32:28;;;;;;;0.60;0.60;;;;;;;13.23;94.69;101054.28;5040406;28;20771;-74
2022/07/07 01:34:55;;;;;;;0.50;0.50;;;;;;;13.23;97.41;101043.81;5039942;28;20358;-74
2022/07/07 01:37:24;;;;;;;1.60;0.50;;;;;;;13.14;94.73;101057.16;5045064;28;20208;-74
2022/07/07 01:39:52;;;;;;;0.60;0.60;;;;;;;13.32;100.00;101048.78;5043767;28;20208;-74
2022/07/07 01:42:19;;;;;;;0.50;0.50;;;;;;;13.31;100.00;101044.44;5040577;28;20220;-74
2022/07/07 01:44:46;;;;;;;0.83;0.50;;;;;;;13.43;100.00;101040.59;5042326;28;20200;-74
2022/07/07 01:47:13;;;;;;;1.60;0.87;;;;;;;13.41;99.31;101038.00;5045306;28;20194;-74
2022/07/07 01:49:40;;;;;;;1.13;0.63;;;;;;;13.26;96.38;101038.44;5040667;28;20215;-74
2022/07/07 01:52:19;;;;;;;0.80;0.73;;;;;;;13.33;99.35;101042.66;5043324;28;20228;-74
2022/07/07 01:54:45;;;;;;;0.87;0.70;;;;;;;13.40;99.66;101041.56;5044637;28;20305;-74
2022/07/07 01:57:12;;;;;;;0.47;0.47;;;;;;;13.35;96.58;101040.84;5038458;28;20567;-75
2022/07/07 01:59:40;;;;;;;0.40;0.40;;;;;;;13.26;94.84;101043.69;5042340;28;20208;-74
2022/07/07 02:02:06;;;;;;;0.87;0.50;;;;;;;13.18;96.30;101043.09;5042852;28;20245;-74
2022/07/07 02:04:33;;;;;;;0.70;0.50;;;;;;;13.15;95.54;101040.56;5042865;28;20211;-74
2022/07/07 02:07:00;;;;;;;1.47;0.80;;;;;;;13.08;94.57;101045.09;5039569;28;20670;-74
2022/07/07 02:09:27;;;;;;;0.40;0.40;;;;;;;13.18;98.55;101046.56;5044185;28;20201;-74
2022/07/07 02:11:53;;;;;;;0.50;0.50;;;;;;;13.05;95.11;101048.69;5040755;28;20208;-74
2022/07/07 02:14:19;;;;;;;0.53;0.50;;;;;;;13.37;100.00;101036.41;5036805;28;20670;-74
2022/07/07 02:16:47;;;;;;;1.13;0.70;;;;;;;13.19;95.06;101035.19;5038561;28;20217;-74
2022/07/07 02:19:14;;;;;;;0.53;0.50;;;;;;;13.38;100.00;101030.25;5042751;28;20603;-74
2022/07/07 02:21:40;;;;;;;0.67;0.60;;;;;;;13.30;96.31;101033.97;5040795;28;20231;-74
2022/07/07 02:24:07;;;;;;;0.60;0.60;;;;;;;13.29;97.01;101034.91;5039440;28;20194;-75
2022/07/07 02:26:33;;;;;;;2.63;0.50;;;;;;;13.33;97.61;101031.28;5037940;28;20207;-74
2022/07/07 02:29:00;;;;;;;0.60;0.60;;;;;;;13.47;100.00;101023.84;5037780;28;20207;-74
2022/07/07 02:31:26;;;;;;;1.60;0.60;;;;;;;13.47;100.00;101026.47;5039850;28;20307;-74
2022/07/07 02:33:54;;;;;;;0.40;0.40;;;;;;;13.55;99.84;101018.41;5047470;28;20211;-74
2022/07/07 02:36:20;;;;;;;0.97;0.73;;;;;;;13.65;100.00;101019.81;5043239;28;20214;-74
2022/07/07 02:38:49;;;;;;;0.90;0.80;;;;;;;13.68;100.00;101018.84;5039496;28;20213;-74
2022/07/07 02:41:15;;;;;;;1.70;0.70;;;;;;;13.49;96.32;101023.81;5042590;28;20246;-74
2022/07/07 02:43:42;;;;;;;0.57;0.37;;;;;;;13.37;94.36;101022.47;5040553;28;20207;-74
2022/07/07 02:46:08;;;;;;;0.40;0.40;;;;;;;13.27;93.92;101021.84;5043487;28;20198;-74
2022/07/07 02:48:35;;;;;;;0.30;0.30;;;;;;;13.36;97.03;101021.59;5047208;28;20201;-74
2022/07/07 02:51:02;;;;;;;1.37;0.40;;;;;;;13.54;99.86;101009.66;5040396;28;20600;-74
2022/07/07 02:53:29;;;;;;;0.60;0.50;;;;;;;13.58;99.44;101010.44;5041687;28;20207;-74
2022/07/07 02:55:55;;;;;;;0.40;0.40;;;;;;;13.75;100.00;101002.00;5043541;28;20698;-74
2022/07/07 02:58:22;;;;;;;1.57;0.67;;;;;;;13.65;97.75;101006.72;5041941;28;20203;-74
2022/07/07 03:00:50;;;;;;;0.57;0.57;;;;;;;13.56;96.48;101002.63;5042567;28;20203;-74
2022/07/07 03:03:17;;;;;;;0.60;0.60;;;;;;;13.51;95.65;101012.41;5040447;28;20204;-74
2022/07/07 03:05:44;;;;;;;0.50;0.50;;;;;;;13.49;96.11;101002.84;5039915;28;20200;-74
2022/07/07 03:08:11;;;;;;;0.87;0.70;;;;;;;13.57;98.46;101000.84;5043751;28;20292;-74
2022/07/07 03:10:38;;;;;;;0.43;0.43;;;;;;;13.75;100.00;100997.63;5046449;28;20195;-74
2022/07/07 03:13:05;;;;;;;0.57;0.53;;;;;;;13.73;98.06;100993.34;5042180;28;20202;-74
2022/07/07 03:15:32;;;;;;;0.60;0.60;;;;;;;13.72;96.85;100989.00;5044802;28;20216;-74
2022/07/07 03:17:58;;;;;;;0.53;0.53;;;;;;;13.80;98.71;100997.47;5039403;28;20576;-74
2022/07/07 03:20:25;;;;;;;1.90;0.50;;;;;;;13.73;98.27;100996.81;5045051;28;20213;-74
2022/07/07 03:22:51;;;;;;;1.93;0.83;;;;;;;13.84;99.80;100993.81;5040838;28;20227;-74
2022/07/07 03:25:19;;;;;;;2.07;0.50;;;;;;;13.94;100.00;100991.75;5043416;28;20290;-74
2022/07/07 03:27:45;;;;;;;0.70;0.50;;;;;;;13.86;100.00;101013.00;5041361;28;20199;-74
2022/07/07 03:30:13;;;;;;;0.80;0.70;;;;;;;13.69;99.21;101018.78;5043772;28;20575;-74
2022/07/07 03:32:39;;;;;;;0.77;0.67;;;;;;;13.58;97.73;101016.53;5043847;28;20219;-75
2022/07/07 03:35:08;;;;;;;1.20;0.77;;;;;;;13.49;97.40;101013.34;5039299;28;20216;-75
2022/07/07 03:37:34;;;;;;;2.03;0.70;;;;;;;13.52;99.95;101008.00;5036473;28;20253;-74
2022/07/07 03:40:01;;;;;;;0.60;0.60;;;;;;;13.45;98.92;101007.34;5045113;28;20208;-74
2022/07/07 03:42:29;;;;;;;0.83;0.80;;;;;;;13.67;100.00;101004.00;5044036;28;20313;-75
2022/07/07 03:44:55;;;;;;;3.47;0.60;;;;;;;13.67;100.00;101007.50;5038535;28;20196;-75
2022/07/07 03:47:22;;;;;;;1.33;0.70;;;;;;;13.72;100.00;101002.09;5035952;28;20201;-75
2022/07/07 03:49:48;;;;;;;0.60;0.60;;;;;;;13.67;100.00;101006.63;5039106;28;20204;-75
2022/07/07 03:52:14;;;;;;;0.90;0.60;;;;;;;13.81;100.00;101004.44;5035421;28;20230;-74
2022/07/07 03:54:41;;;;;;;0.60;0.60;;;;;;;13.92;100.00;101006.69;5039448;28;20300;-74
2022/07/07 03:57:07;;;;;;;0.40;0.40;;;;;;;13.93;100.00;101004.03;5036784;28;20229;-74
2022/07/07 03:59:35;;;;;;;2.33;0.60;;;;;;;13.94;100.00;101002.25;5038217;28;20212;-74
2022/07/07 04:02:01;;;;;;;0.60;0.60;;;;;;;14.04;100.00;101002.81;5042077;28;20515;-74
2022/07/07 04:04:28;;;;;;;1.43;0.70;;;;;;;13.93;100.00;101008.38;5042482;28;20245;-74
2022/07/07 04:06:54;;;;;;;0.80;0.60;;;;;;;13.90;100.00;101003.28;5040563;28;20212;-74
2022/07/07 04:09:21;;;;;;;0.73;0.60;;;;;;;14.03;100.00;100999.31;5035889;28;20575;-74
2022/07/07 04:11:47;;;;;;;0.80;0.70;;;;;;;14.03;100.00;100999.31;5040245;28;20225;-74
2022/07/07 04:14:13;;;;;;;1.07;0.70;;;;;;;13.97;100.00;100996.91;5040644;28;20574;-74
2022/07/07 04:16:41;;;;;;;0.60;0.60;;;;;;;13.89;100.00;100998.94;5034281;28;20215;-75
2022/07/07 04:19:08;;;;;;;1.33;1.07;;;;;;;13.80;100.00;100997.47;5035894;28;20202;-74
2022/07/07 04:21:34;;;;;;;1.23;0.70;;;;;;;13.76;100.00;100996.72;5039496;28;20224;-74
2022/07/07 04:24:00;;;;;;;1.17;0.70;;;;;;;13.75;100.00;100997.63;5030728;28;20213;-74
2022/07/07 04:26:27;;;;;;;0.80;0.80;;;;;;;13.66;100.00;100997.09;5032062;28;20265;-74
2022/07/07 04:28:53;;;;;;;2.37;0.80;;;;;;;13.42;100.00;101005.69;5037468;28;20210;-75
2022/07/07 04:31:20;;;;;;;0.50;0.50;;;;;;;13.31;100.00;100994.69;5036990;28;20593;-74
2022/07/07 04:33:47;;;;;;;1.70;0.80;;;;;;;13.26;100.00;100996.56;5036908;28;20210;-75
2022/07/07 04:36:14;;;;;;;0.80;0.70;;;;;;;13.17;100.00;100989.00;5036809;28;20226;-75
2022/07/07 04:38:41;;;;;;;0.77;0.70;;;;;;;13.32;100.00;100993.78;5035276;28;20199;-74
2022/07/07 04:41:07;;;;;;;0.80;0.70;;;;;;;13.46;100.00;100985.50;5034301;28;20230;-75
2022/07/07 04:43:33;;;;;;;1.47;0.90;;;;;;;13.31;100.00;100988.56;5037084;28;20570;-75
2022/07/07 04:46:00;;;;;;;0.97;0.70;;;;;;;13.41;100.00;100980.41;5033615;28;20229;-75
2022/07/07 04:48:27;;;;;;;1.03;0.70;;;;;;;13.46;100.00;100977.63;5033265;28;20198;-75
2022/07/07 04:50:55;;;;;;;1.47;0.70;;;;;;;13.51;100.00;100988.81;5038165;28;20673;-75
2022/07/07 04:53:21;;;;;;;1.30;0.63;;;;;;;13.57;100.00;100985.13;5041513;28;20209;-75
2022/07/07 04:55:48;;;;;;;2.67;0.80;;;;;;;13.71;100.00;100984.69;5040782;28;20217;-74
2022/07/07 04:58:14;;;;;;;0.80;0.80;;;;;;;13.65;100.00;100980.50;5034463;28;20202;-74
2022/07/07 05:00:41;;;;;;;0.60;0.60;;;;;;;13.48;100.00;100975.81;5037653;28;20194;-75
2022/07/07 05:03:07;;;;;;;2.53;0.80;;;;;;;13.39;100.00;100974.34;5034685;28;20211;-75
2022/07/07 05:05:33;;;;;;;1.80;0.80;;;;;;;13.36;100.00;100970.97;5039394;28;21385;-75
2022/07/07 05:08:01;;;;;;;0.90;0.80;;;;;;;13.40;100.00;100978.69;5037405;28;20188;-75
2022/07/07 05:10:28;;;;;;;0.60;0.60;;;;;;;13.41;100.00;100969.06;5040423;28;20203;-75
2022/07/07 05:12:54;;;;;;;0.70;0.70;;;;;;;13.27;100.00;100978.19;5045932;28;20215;-74
2022/07/07 05:15:21;;;;;;;0.70;0.70;;;;;;;13.29;100.00;100974.66;5042514;28;20209;-75
2022/07/07 05:17:47;;;;;;;1.03;0.90;;;;;;;13.26;100.00;100973.88;5042386;28;20649;-75
2022/07/07 05:20:14;;;;;;;0.70;0.70;;;;;;;13.19;100.00;100974.09;5037778;28;20207;-75
2022/07/07 05:22:40;;;;;;;1.13;0.70;;;;;;;13.07;100.00;100970.13;5038170;28;20606;-75
2022/07/07 05:25:08;;;;;;;1.27;0.90;;;;;;;13.13;100.00;100972.53;5038382;28;20209;-75
2022/07/07 05:27:34;;;;;;;0.70;0.70;;;;;;;13.15;100.00;100967.25;5039098;28;20209;-75
2022/07/07 05:30:01;;;;;;;1.27;0.90;;;;;;;13.22;100.00;100969.59;5042587;28;20281;-75
2022/07/07 05:32:27;;;;;;;0.83;0.83;;;;;;;13.18;100.00;100973.25;5040396;28;20222;-75
2022/07/07 05:34:54;;;;;;;4.63;0.80;;;;;;;13.21;100.00;100974.91;5037097;28;20264;-75
2022/07/07 05:37:20;;;;;;;1.80;1.13;;;;;;;13.14;100.00;100962.91;5038495;28;20564;-75
2022/07/07 05:39:47;;;;;;;1.87;0.90;;;;;;;13.11;100.00;100965.63;5038289;28;20285;-75
2022/07/07 05:42:14;;;;;;;1.00;1.00;;;;;;;13.18;100.00;100967.16;5036705;28;20230;-75
2022/07/07 05:44:41;;;;;;;0.90;0.90;;;;;;;13.21;100.00;100961.84;5038464;28;20551;-75
2022/07/07 05:47:08;;;;;;;2.63;1.00;;;;;;;13.17;100.00;100962.81;5036228;28;20221;-75
2022/07/07 05:49:34;;;;;;;0.90;0.90;;;;;;;13.24;100.00;100959.09;5042696;28;20206;-75
2022/07/07 05:52:01;;;;;;;0.70;0.70;;;;;;;13.31;100.00;100960.63;5044481;28;20233;-75
2022/07/07 05:54:27;;;;;;;3.37;1.00;;;;;;;13.34;100.00;100955.31;5035304;28;20291;-75
2022/07/07 05:56:54;;;;;;;2.00;0.70;;;;;;;13.39;100.00;100960.41;5037547;28;20203;-74
2022/07/07 05:59:21;;;;;;;1.20;0.90;;;;;;;13.44;100.00;100959.34;5042084;28;20218;-75
2022/07/07 06:01:48;;;;;;;1.27;1.00;;;;;;;13.41;100.00;100956.81;5040738;28;20665;-75
2022/07/07 06:04:14;;;;;;;1.10;0.80;;;;;;;13.29;100.00;100957.19;5042010;28;20219;-75
2022/07/07 06:06:41;;;;;;;1.43;0.80;;;;;;;13.32;100.00;100951.88;5044473;28;20194;-75
2022/07/07 06:09:07;;;;;;;2.00;0.63;;;;;;;13.36;100.00;100956.09;5044582;28;20191;-75
2022/07/07 06:11:33;;;;;;;3.40;1.10;;;;;;;13.49;100.00;100951.34;5039202;28;20220;-75
2022/07/07 06:14:00;;;;;;;0.90;0.90;;;;;;;13.43;100.00;100962.00;5042245;28;20224;-75
2022/07/07 06:16:40;;;;;;;1.77;1.10;;;;;;;13.45;100.00;100957.56;5044576;28;20222;-75
2022/07/07 06:19:07;;;;;;;1.23;0.73;;;;;;;13.48;100.00;100959.25;5041247;28;20200;-75
2022/07/07 06:21:34;;;;;;;0.90;0.73;;;;;;;13.51;100.00;100952.16;5045027;28;20718;-75
2022/07/07 06:24:00;;;;;;;1.57;0.90;;;;;;;13.49;100.00;100953.97;5047726;28;20206;-75
2022/07/07 06:26:26;;;;;;;3.07;0.93;;;;;;;13.69;100.00;100955.06;5039426;28;20192;-75
2022/07/07 06:28:53;;;;;;;1.40;0.80;;;;;;;13.77;100.00;100953.03;5040211;28;20211;-74
2022/07/07 06:31:19;;;;;;;1.10;1.00;;;;;;;13.79;100.00;100953.81;5044891;28;20222;-75
2022/07/07 06:33:47;;;;;;;1.20;1.10;;;;;;;13.77;100.00;100951.28;5039809;28;20262;-75
2022/07/07 06:36:13;;;;;;;1.70;1.00;;;;;;;13.92;100.00;100954.28;5042327;28;20199;-74
2022/07/07 06:38:41;;;;;;;1.17;1.00;;;;;;;14.02;100.00;100948.66;5039264;28;20218;-75
2022/07/07 06:41:07;;;;;;;1.90;1.10;;;;;;;14.18;100.00;100943.72;5035641;28;20234;-75
2022/07/07 06:43:34;;;;;;;1.00;0.90;;;;;;;14.33;100.00;100944.91;5042539;28;20204;-75
2022/07/07 06:46:00;;;;;;;1.00;0.90;;;;;;;14.32;100.00;100942.38;5038434;28;20377;-74
2022/07/07 06:48:26;;;;;;;0.90;0.90;;;;;;;14.48;100.00;100947.91;5042690;28;20242;-75
2022/07/07 06:50:54;;;;;;;0.80;0.80;;;;;;;14.69;100.00;100941.03;5039000;28;20196;-75
2022/07/07 06:53:21;;;;;;;1.90;1.20;;;;;;;14.72;100.00;100946.13;5043384;28;20312;-75
2022/07/07 06:55:47;;;;;;;0.90;0.90;;;;;;;14.93;100.00;100936.56;5044867;28;20197;-74
2022/07/07 06:58:14;;;;;;;2.17;0.90;;;;;;;15.21;100.00;100938.94;5038054;28;20222;-75
2022/07/07 07:00:40;;;;;;;3.80;0.80;;;;;;;15.33;100.00;100946.31;5041276;28;20203;-74
2022/07/07 07:03:07;;;;;;;0.70;0.70;;;;;;;15.36;100.00;100936.63;5046802;28;20694;-75
2022/07/07 07:05:34;;;;;;;1.13;1.03;;;;;;;15.41;100.00;100935.53;5035707;28;20246;-74
2022/07/07 07:08:02;;;;;;;1.00;1.00;;;;;;;15.47;100.00;100934.41;5042367;28;20214;-74
2022/07/07 07:10:28;;;;;;;1.17;1.07;;;;;;;15.32;100.00;100933.28;5045886;28;20208;-75
2022/07/07 07:12:55;;;;;;;1.20;1.10;;;;;;;15.18;100.00;100935.59;5037778;28;20211;-75
2022/07/07 07:15:21;;;;;;;0.93;0.80;;;;;;;15.10;100.00;100926.25;5043803;28;20512;-75
2022/07/07 07:17:47;;;;;;;1.27;0.90;;;;;;;14.98;100.00;100932.00;5042115;28;20223;-75
2022/07/07 07:20:14;;;;;;;1.20;1.10;;;;;;;15.12;100.00;100926.19;5037040;28;20214;-75
2022/07/07 07:22:41;;;;;;;1.47;1.00;;;;;;;15.03;100.00;100929.19;5040027;28;20257;-75
2022/07/07 07:25:09;;;;;;;1.60;1.10;;;;;;;15.18;100.00;100932.97;5040392;28;20204;-75
2022/07/07 07:27:36;;;;;;;1.10;1.00;;;;;;;15.08;100.00;100932.50;5038191;28;20671;-75
2022/07/07 07:30:04;;;;;;;1.83;1.10;;;;;;;15.10;100.00;100926.25;5039669;28;20204;-76
2022/07/07 07:32:30;;;;;;;1.90;1.00;;;;;;;15.06;100.00;100927.31;5043238;28;20233;-75
2022/07/07 07:34:57;;;;;;;1.20;1.10;;;;;;;15.06;100.00;100922.06;5042371;28;20577;-75
2022/07/07 07:37:23;;;;;;;1.77;1.30;;;;;;;15.22;100.00;100918.81;5041720;28;20227;-75
2022/07/07 07:39:49;;;;;;;1.23;1.03;;;;;;;15.14;100.00;100916.47;5041501;28;20197;-75
2022/07/07 07:42:17;;;;;;;1.70;1.03;;;;;;;15.07;100.00;100912.41;5037312;28;20234;-75
2022/07/07 07:47:28;;;;;;;1.20;1.10;;;;;;;15.21;100.00;100907.44;5041140;28;20191;-74
2022/07/07 07:49:54;;;;;;;0.80;0.80;;;;;;;15.48;100.00;100912.47;5039257;28;20592;-75
2022/07/07 07:52:20;;;;;;;1.73;1.33;;;;;;;15.60;100.00;100914.59;5040173;28;20223;-75
2022/07/07 07:54:47;;;;;;;1.10;1.00;;;;;;;15.93;100.00;100905.34;5044227;28;20199;-74
2022/07/07 07:57:13;;;;;;;1.07;0.97;;;;;;;16.27;100.00;100909.97;5039556;28;20226;-74
2022/07/07 07:59:41;;;;;;;1.20;1.10;;;;;;;16.21;100.00;100904.94;5040133;28;20697;-75
2022/07/07 08:02:08;;;;;;;1.10;1.00;;;;;;;15.93;100.00;100911.44;5038074;28;20223;-75
2022/07/07 08:04:34;;;;;;;2.47;1.20;;;;;;;15.78;100.00;100907.72;5039637;28;20790;-74
2022/07/07 08:07:01;;;;;;;1.13;1.03;;;;;;;15.89;100.00;100902.84;5035125;28;20258;-75
2022/07/07 08:09:28;;;;;;;1.80;1.30;;;;;;;15.96;100.00;100900.78;5036012;28;20198;-75
2022/07/07 08:11:55;;;;;;;1.73;1.07;;;;;;;15.80;100.00;100905.03;5042641;28;20215;-75
2022/07/07 08:14:21;;;;;;;1.07;0.97;;;;;;;15.71;100.00;100908.88;5033707;28;20210;-75
2022/07/07 08:16:49;;;;;;;1.90;1.20;;;;;;;15.42;100.00;100904.84;5037986;28;20616;-75
2022/07/07 08:19:17;;;;;;;0.90;0.90;;;;;;;15.30;100.00;100907.06;5038868;28;20575;-75
2022/07/07 08:21:46;;;;;;;2.17;1.40;;;;;;;15.26;100.00;100899.38;5041698;28;20814;-75
2022/07/07 08:24:13;;;;;;;1.70;1.20;;;;;;;15.34;100.00;100895.50;5038613;28;20211;-75
2022/07/07 08:26:39;;;;;;;1.50;1.40;;;;;;;15.41;100.00;100896.13;5040154;28;20257;-75
2022/07/07 08:29:06;;;;;;;2.90;1.10;;;;;;;15.23;100.00;100905.63;5038031;28;20200;-76
2022/07/07 08:31:32;;;;;;;1.10;1.10;;;;;;;15.27;100.00;100896.69;5036807;28;20754;-75
2022/07/07 08:34:00;;;;;;;1.10;1.00;;;;;;;15.20;100.00;100897.00;5041571;28;20195;-75
2022/07/07 08:36:27;;;;;;;1.40;1.30;;;;;;;15.20;100.00;100886.50;5036369;28;20706;-75
2022/07/07 08:38:53;;;;;;;1.33;1.23;;;;;;;15.19;100.00;100883.00;5035931;28;20211;-75
2022/07/07 08:41:20;;;;;;;1.20;1.10;;;;;;;15.14;100.00;100880.59;5043393;28;20273;-75
2022/07/07 08:43:47;;;;;;;1.97;1.60;;;;;;;15.16;100.00;100885.75;5038071;28;20205;-74
2022/07/07 08:46:14;;;;;;;1.33;1.23;;;;;;;15.09;100.00;100887.81;5035841;28;20206;-74
2022/07/07 08:48:41;;;;;;;1.97;1.10;;;;;;;15.13;100.00;100884.13;5039210;28;20202;-74
2022/07/07 08:51:09;;;;;;;1.33;1.23;;;;;;;15.22;100.00;100877.63;5036443;28;20238;-74
2022/07/07 08:53:38;;;;;;;2.47;1.37;;;;;;;15.18;100.00;100883.94;5039249;28;20272;-74
2022/07/07 08:56:06;;;;;;;1.33;1.23;;;;;;;15.15;100.00;100894.56;5042915;28;20198;-74
2022/07/07 08:58:35;;;;;;;1.77;1.53;;;;;;;15.25;100.00;100882.78;5038460;28;20242;-74
2022/07/07 09:01:01;;;;;;;2.20;1.40;;;;;;;15.20;100.00;100892.59;5040969;28;20284;-74
2022/07/07 09:03:28;;;;;;;2.03;1.60;;;;;;;15.18;100.00;100880.44;5038680;28;20211;-74
2022/07/07 09:05:56;;;;;;;1.63;1.53;;;;;;;15.15;100.00;100878.81;5041023;28;20199;-74
2022/07/07 09:08:25;;;;;;;1.60;1.50;;;;;;;15.28;100.00;100884.41;5036967;28;20199;-74
2022/07/07 09:10:52;;;;;;;4.20;1.40;;;;;;;15.16;100.00;100885.75;5043461;28;20601;-74
2022/07/07 09:13:25;;;;;;;2.20;1.50;;;;;;;15.30;100.00;100882.56;5041631;28;20509;-74
2022/07/07 09:15:53;;;;;;;2.20;1.60;;;;;;;15.15;100.00;100882.28;5032173;28;20211;-73
2022/07/07 09:18:30;;;;;;;2.07;1.40;;;;;;;15.20;100.00;100879.47;5040570;28;20699;-74
2022/07/07 09:20:57;;;;;;;1.70;1.60;;;;;;;15.22;100.00;100882.03;5040289;28;20654;-74
2022/07/07 09:23:25;;;;;;;2.77;2.33;;;;;;;15.27;100.00;100880.94;5039683;28;20203;-74
2022/07/07 09:25:51;;;;;;;4.70;2.50;;;;;;;15.21;100.00;100875.91;5026889;28;20358;-74
2022/07/07 09:28:18;;;;;;;16.67;9.90;;;;;;;15.36;100.00;100877.06;5024447;28;20202;-73
2022/07/07 09:30:46;;;;;;;6.83;4.80;;;;;;;15.45;100.00;100883.69;5033927;28;20199;-74
2022/07/07 09:33:15;;;;;;;2.60;2.30;;;;;;;15.45;100.00;100881.06;5039042;28;20200;-73
2022/07/07 09:38:31;;;;;;;1.70;1.60;;;;;;;15.75;100.00;100875.44;5033182;28;20227;-73
2022/07/07 09:41:02;;;;;;;1.77;1.57;;;;;;;16.03;100.00;100881.19;5035562;28;20266;-73
2022/07/07 09:43:29;;;;;;;3.27;2.50;;;;;;;16.08;100.00;100878.38;5045239;28;20778;-74
2022/07/07 09:46:11;;;;;;;2.87;2.37;;;;;;;16.23;100.00;100880.28;5031513;28;20204;-74
2022/07/07 09:48:40;;;;;;;4.90;3.20;;;;;;;16.41;100.00;100875.09;5031253;28;20195;-74
2022/07/07 09:51:18;;;;;;;3.23;2.40;;;;;;;16.38;100.00;100884.00;5036661;28;20258;-73
2022/07/07 09:56:14;;;;;;;2.90;1.83;;;;;;;16.29;100.00;100879.16;5044796;28;20211;-70
2022/07/07 09:58:40;;;;;;;4.37;2.00;;;;;;;16.03;100.00;100893.50;5052915;28;20206;-69
2022/07/07 10:01:07;;;;;;;2.53;2.20;;;;;;;16.06;100.00;100885.47;5061064;28;20234;-70
2022/07/07 10:03:35;;;;;;;3.07;2.17;;;;;;;15.85;100.00;100889.91;5065946;28;20198;-71
2022/07/07 10:06:02;;;;;;;3.67;2.23;;;;;;;15.92;100.00;100890.47;5070558;28;20186;-71
2022/07/07 10:08:31;;;;;;;2.83;2.27;;;;;;;15.85;100.00;100888.13;5050318;28;20207;-70
2022/07/07 10:10:58;;;;;;;2.50;1.90;;;;;;;15.96;100.00;100879.75;5063220;28;20690;-69
2022/07/07 10:13:29;;;;;;;2.43;1.87;;;;;;;15.96;100.00;100884.16;5065204;28;20202;-71
2022/07/07 10:15:56;;;;;;;3.07;2.20;;;;;;;15.99;100.00;100884.00;5067315;28;20625;-69
2022/07/07 10:18:23;;;;;;;2.10;1.90;;;;;;;15.86;100.00;100883.72;5070049;28;20211;-71
2022/07/07 10:20:50;;;;;;;2.33;2.13;;;;;;;15.81;100.00;100883.94;5070986;28;20207;-69
2022/07/07 10:23:17;;;;;;;2.77;2.17;;;;;;;15.80;100.00;100884.84;5068632;28;20205;-70
2022/07/07 10:25:59;;;;;;;2.40;2.20;;;;;;;15.93;100.00;100881.66;5076324;28;20199;-71
2022/07/07 10:28:56;;;;;;;2.43;2.20;;;;;;;15.97;100.00;100886.75;5066808;28;20675;-69
2022/07/07 10:31:23;;;;;;;2.20;1.93;;;;;;;15.89;100.00;100889.69;5065748;28;20196;-70
2022/07/07 10:33:56;;;;;;;4.23;2.03;;;;;;;15.97;100.00;100889.38;5068429;28;20194;-70
2022/07/07 10:36:23;;;;;;;2.60;2.10;;;;;;;16.02;100.00;100884.75;5062401;28;20527;-70
2022/07/07 10:38:53;;;;;;;4.47;2.37;;;;;;;16.06;100.00;100883.69;5062415;28;20207;-70
2022/07/07 10:41:24;;;;;;;2.40;2.20;;;;;;;16.05;100.00;100889.00;5070127;28;20252;-71
2022/07/07 10:44:05;;;;;;;1.90;1.80;;;;;;;16.19;100.00;100888.41;5065100;28;20194;-71
2022/07/07 10:46:31;;;;;;;2.37;2.03;;;;;;;16.21;100.00;100884.75;5065565;28;20198;-71
2022/07/07 10:49:09;;;;;;;3.13;2.30;;;;;;;16.36;100.00;100880.59;5061480;28;20202;-71
2022/07/07 10:51:52;;;;;;;2.63;1.80;;;;;;;16.47;100.00;100880.09;5061295;28;20195;-71
2022/07/07 10:54:33;;;;;;;1.80;1.70;;;;;;;16.46;100.00;100879.25;5063380;28;20726;-70
2022/07/07 10:57:15;;;;;;;2.00;1.77;;;;;;;16.47;100.00;100874.81;5068630;28;20193;-69
2022/07/07 11:00:12;;;;;;;1.60;1.50;;;;;;;16.71;100.00;100879.84;5051561;28;20218;-70
2022/07/07 11:02:42;;;;;;;2.57;1.70;;;;;;;16.86;100.00;100873.03;5056891;28;20199;-71
2022/07/07 11:05:32;;;;;;;2.00;1.80;;;;;;;16.77;100.00;100879.56;5064809;28;20186;-71
2022/07/07 11:08:11;;;;;;;2.40;1.90;;;;;;;16.70;100.00;100876.34;5063504;28;20681;-71
2022/07/07 11:10:50;;;;;;;1.60;1.50;;;;;;;16.64;100.00;100874.03;5058359;28;20560;-70
2022/07/07 11:13:19;;;;;;;1.67;1.37;;;;;;;16.51;100.00;100876.38;5055657;28;20195;-70
2022/07/07 11:15:47;;;;;;;1.40;1.30;;;;;;;16.56;100.00;100879.63;5043144;28;20671;-71
2022/07/07 11:18:15;;;;;;;3.67;1.60;;;;;;;16.66;100.00;100874.81;5066829;28;20217;-70
2022/07/07 11:20:56;;;;;;;1.60;1.50;;;;;;;16.68;100.00;100877.38;5066442;28;20218;-70
2022/07/07 11:23:25;;;;;;;1.87;1.60;;;;;;;16.82;100.00;100867.03;5061666;28;20701;-71
2022/07/07 11:25:56;;;;;;;2.13;1.50;;;;;;;16.91;100.00;100877.13;5064344;28;20195;-71
2022/07/07 11:28:25;;;;;;;1.57;1.47;;;;;;;17.02;100.00;100877.47;5063668;28;20662;-71
2022/07/07 11:31:03;;;;;;;1.50;1.40;;;;;;;17.00;100.00;100878.47;5062988;28;20222;-71